Time;durP1;ratioP1;P1;durP2;ratioP2;P2;SDS_P1;SDS_P2;PMS_P1;PMS_P2;Temp;Humidity;BMP_temperature;BMP_pressure;BME280_temperature;BME280_humidity;BME280_pressure;Samples;Min_cycle;Max_cycle;Signal;HPM_P1;HPM_P2
2020/12/12 00:00:35;;;;;;;32.05;17.55;;;3.50;99.90;;;;;;5169740;27;20418;-69
2020/12/12 00:03:01;;;;;;;34.08;16.35;;;3.60;99.90;;;;;;5169813;27;20098;-69
2020/12/12 00:05:27;;;;;;;39.35;22.30;;;3.60;99.90;;;;;;5169470;27;20042;-70
2020/12/12 00:07:52;;;;;;;35.08;19.77;;;3.60;99.90;;;;;;5169344;27;20043;-69
2020/12/12 00:10:23;;;;;;;34.15;20.38;;;3.50;99.90;;;;;;5169197;27;20103;-69
2020/12/12 00:12:50;;;;;;;34.55;20.60;;;3.50;99.90;;;;;;5169222;27;20042;-70
2020/12/12 00:15:15;;;;;;;40.08;23.88;;;3.50;99.90;;;;;;5169173;27;20058;-69
2020/12/12 00:17:42;;;;;;;40.13;22.27;;;3.50;99.90;;;;;;5169502;27;20046;-70
2020/12/12 00:20:07;;;;;;;38.28;22.73;;;3.50;99.90;;;;;;5169219;27;20073;-70
2020/12/12 00:22:33;;;;;;;39.50;21.63;;;3.50;99.90;;;;;;5169129;27;20038;-70
2020/12/12 00:25:19;;;;;;;38.88;22.10;;;3.50;99.90;;;;;;5139513;27;20043;-69
2020/12/12 00:28:04;;;;;;;40.85;21.42;;;3.50;99.90;;;;;;5153524;27;20057;-69
2020/12/12 00:30:30;;;;;;;35.67;20.73;;;3.40;99.90;;;;;;5168838;27;20042;-70
2020/12/12 00:32:56;;;;;;;37.72;22.30;;;3.40;99.90;;;;;;5168888;27;20113;-70
2020/12/12 00:35:22;;;;;;;34.38;21.10;;;3.40;99.90;;;;;;5169028;27;20142;-71
2020/12/12 00:37:47;;;;;;;36.25;21.60;;;3.40;99.90;;;;;;5168717;27;20038;-71
2020/12/12 00:40:13;;;;;;;38.85;22.20;;;3.40;99.90;;;;;;5168666;27;20054;-70
2020/12/12 00:42:59;;;;;;;36.63;22.15;;;3.40;99.90;;;;;;5153241;27;20054;-70
2020/12/12 00:45:25;;;;;;;40.88;23.30;;;3.30;99.90;;;;;;5168808;27;20042;-70
2020/12/12 00:47:50;;;;;;;38.22;21.48;;;3.30;99.90;;;;;;5168498;27;20119;-70
2020/12/12 00:50:36;;;;;;;32.80;18.85;;;3.30;99.90;;;;;;5152315;27;20050;-70
2020/12/12 00:53:02;;;;;;;39.40;22.85;;;3.30;99.90;;;;;;5168783;27;20098;-71
2020/12/12 00:55:27;;;;;;;40.88;22.98;;;3.30;99.90;;;;;;5168296;27;20047;-71
2020/12/12 00:57:53;;;;;;;38.58;23.55;;;3.30;99.90;;;;;;5168305;27;20042;-71
2020/12/12 01:00:19;;;;;;;39.00;22.10;;;3.30;99.90;;;;;;5168312;27;20424;-71
2020/12/12 01:03:06;;;;;;;43.58;24.75;;;3.20;99.90;;;;;;5152889;27;20073;-71
2020/12/12 01:05:32;;;;;;;41.42;23.52;;;3.20;99.90;;;;;;5168294;27;20042;-71
2020/12/12 01:07:58;;;;;;;37.35;21.95;;;3.20;99.90;;;;;;5168459;27;20081;-71
2020/12/12 01:10:44;;;;;;;42.03;21.15;;;3.20;99.90;;;;;;5152792;27;20141;-72
2020/12/12 01:13:10;;;;;;;43.95;26.27;;;3.20;99.90;;;;;;5168004;27;20073;-71
2020/12/12 01:15:55;;;;;;;37.67;22.38;;;3.20;99.90;;;;;;5152915;27;20170;-72
2020/12/12 01:18:22;;;;;;;39.33;24.48;;;3.20;99.90;;;;;;5168020;27;20049;-71
2020/12/12 01:21:08;;;;;;;44.03;24.98;;;3.20;99.90;;;;;;5152643;27;20049;-71
2020/12/12 01:23:34;;;;;;;32.67;20.00;;;3.20;99.90;;;;;;5167915;27;20055;-71
2020/12/12 01:26:00;;;;;;;42.40;25.23;;;3.20;99.90;;;;;;5168137;27;20043;-71
2020/12/12 01:28:26;;;;;;;50.22;27.98;;;3.20;99.90;;;;;;5167789;27;20058;-71
2020/12/12 01:30:53;;;;;;;47.45;25.73;;;3.10;99.90;;;;;;5167890;27;20042;-70
2020/12/12 01:33:20;;;;;;;38.60;21.73;;;3.20;99.90;;;;;;5167905;27;20039;-70
2020/12/12 01:35:46;;;;;;;41.23;22.70;;;3.20;99.90;;;;;;5167927;27;20039;-71
2020/12/12 01:38:12;;;;;;;40.70;23.80;;;3.20;99.90;;;;;;5167771;27;20303;-71
2020/12/12 01:40:38;;;;;;;45.83;26.92;;;3.20;99.90;;;;;;5168041;27;20042;-72
2020/12/12 01:43:04;;;;;;;44.45;25.27;;;3.10;99.90;;;;;;5167889;27;20053;-72
2020/12/12 01:45:30;;;;;;;43.58;25.33;;;3.10;99.90;;;;;;5167809;27;20577;-72
2020/12/12 01:48:16;;;;;;;43.40;25.60;;;3.10;99.90;;;;;;5152180;27;20047;-72
2020/12/12 01:50:42;;;;;;;47.83;25.30;;;3.10;99.90;;;;;;5167579;27;20091;-72
2020/12/12 01:53:08;;;;;;;44.38;23.15;;;3.10;99.90;;;;;;5167939;27;20066;-73
2020/12/12 01:55:36;;;;;;;44.40;26.15;;;3.10;99.90;;;;;;5167858;27;20066;-72
2020/12/12 01:58:22;;;;;;;41.83;26.40;;;3.10;99.90;;;;;;5152332;27;20078;-72
2020/12/12 02:01:11;;;;;;;43.50;25.40;;;3.10;99.90;;;;;;5152842;27;20073;-73
2020/12/12 02:03:58;;;;;;;39.92;22.90;;;3.00;99.90;;;;;;5156710;27;20088;-72
2020/12/12 02:06:45;;;;;;;45.45;24.25;;;3.00;99.90;;;;;;5156654;27;20054;-72
2020/12/12 02:09:13;;;;;;;44.85;25.40;;;3.00;99.90;;;;;;5171541;27;20058;-72
2020/12/12 02:12:00;;;;;;;41.95;22.95;;;3.00;99.90;;;;;;5156349;27;20194;-72
2020/12/12 02:14:26;;;;;;;45.33;25.83;;;2.90;99.90;;;;;;5171432;27;20052;-71
2020/12/12 02:16:53;;;;;;;43.80;24.60;;;2.90;99.90;;;;;;5171532;27;20074;-71
2020/12/12 02:19:20;;;;;;;54.47;29.77;;;2.80;99.90;;;;;;5171407;27;20053;-72
2020/12/12 02:21:51;;;;;;;46.38;25.83;;;2.80;99.90;;;;;;5171525;27;20086;-72
2020/12/12 02:24:17;;;;;;;52.28;28.02;;;2.80;99.90;;;;;;5171462;27;20066;-73
2020/12/12 02:26:42;;;;;;;54.05;28.60;;;2.80;99.90;;;;;;5171317;27;20049;-73
2020/12/12 02:29:10;;;;;;;44.17;23.45;;;2.80;99.90;;;;;;5171018;27;20529;-73
2020/12/12 02:31:37;;;;;;;46.38;27.33;;;2.70;99.90;;;;;;5171306;27;20042;-73
2020/12/12 02:34:03;;;;;;;51.45;27.65;;;2.70;99.90;;;;;;5171271;27;20095;-71
2020/12/12 02:36:49;;;;;;;47.15;24.80;;;2.70;99.90;;;;;;5155675;27;20114;-72
2020/12/12 02:39:15;;;;;;;47.75;26.95;;;2.70;99.90;;;;;;5171158;27;20054;-72
2020/12/12 02:41:41;;;;;;;44.42;23.13;;;2.70;99.90;;;;;;5170995;27;20057;-72
2020/12/12 02:44:06;;;;;;;52.92;26.88;;;2.70;99.90;;;;;;5170914;27;20506;-73
2020/12/12 02:46:32;;;;;;;48.15;25.98;;;2.70;99.90;;;;;;5171108;27;20047;-73
2020/12/12 02:48:58;;;;;;;51.05;26.77;;;2.70;99.90;;;;;;5170924;27;20043;-73
2020/12/12 02:51:44;;;;;;;45.95;24.85;;;2.70;99.90;;;;;;5155610;27;20051;-74
2020/12/12 02:54:30;;;;;;;49.80;25.02;;;2.70;99.90;;;;;;5155486;27;20046;-72
2020/12/12 02:56:55;;;;;;;42.20;23.85;;;2.70;99.90;;;;;;5171081;27;20049;-73
2020/12/12 02:59:21;;;;;;;47.00;25.75;;;2.80;99.90;;;;;;5170782;27;20046;-72
2020/12/12 03:01:47;;;;;;;46.97;25.33;;;2.80;99.90;;;;;;5170575;27;20046;-72
2020/12/12 03:04:13;;;;;;;40.22;22.23;;;2.80;99.90;;;;;;5170574;27;20059;-72
2020/12/12 03:06:43;;;;;;;42.05;23.02;;;2.80;99.90;;;;;;5170517;27;20064;-72
2020/12/12 03:09:29;;;;;;;47.28;26.00;;;2.80;99.90;;;;;;5155193;27;20050;-72
2020/12/12 03:11:55;;;;;;;35.60;18.55;;;2.80;99.90;;;;;;5152123;27;20051;-72
2020/12/12 03:14:41;;;;;;;43.47;24.10;;;2.90;99.90;;;;;;5154482;27;20050;-71
2020/12/12 03:17:09;;;;;;;35.40;19.33;;;2.80;99.90;;;;;;5170276;27;20043;-72
2020/12/12 03:19:39;;;;;;;46.25;24.40;;;2.90;99.90;;;;;;5170377;27;20043;-71
2020/12/12 03:22:05;;;;;;;46.03;24.30;;;2.90;99.90;;;;;;5170330;27;20576;-72
2020/12/12 03:24:51;;;;;;;44.70;25.23;;;2.90;99.90;;;;;;5154724;27;20050;-71
2020/12/12 03:27:17;;;;;;;44.22;23.27;;;2.90;99.90;;;;;;5170273;27;20054;-72
2020/12/12 03:29:42;;;;;;;46.05;24.20;;;2.90;99.90;;;;;;5170104;27;20122;-71
2020/12/12 03:32:10;;;;;;;38.88;23.48;;;2.90;99.90;;;;;;5170393;27;20046;-72
2020/12/12 03:34:37;;;;;;;38.55;22.38;;;2.90;99.90;;;;;;5170107;27;20048;-72
2020/12/12 03:37:07;;;;;;;39.45;21.58;;;2.90;99.90;;;;;;5169989;27;20605;-73
2020/12/12 03:39:33;;;;;;;40.47;23.13;;;3.00;99.90;;;;;;5169814;27;20050;-71
2020/12/12 03:41:59;;;;;;;38.85;23.70;;;3.00;99.90;;;;;;5169953;27;20039;-71
2020/12/12 03:44:26;;;;;;;40.10;22.27;;;3.00;99.90;;;;;;5169824;27;20061;-71
2020/12/12 03:46:51;;;;;;;40.65;21.63;;;3.00;99.90;;;;;;5170082;27;20046;-72
2020/12/12 03:49:17;;;;;;;39.33;22.92;;;2.90;99.90;;;;;;5169816;27;20064;-73
2020/12/12 03:52:03;;;;;;;36.63;19.08;;;2.90;99.90;;;;;;5154283;27;20050;-73
2020/12/12 03:54:30;;;;;;;40.25;22.30;;;3.00;99.90;;;;;;5169845;27;20050;-71
2020/12/12 03:56:55;;;;;;;37.20;21.17;;;3.00;99.90;;;;;;5169503;27;20046;-73
2020/12/12 03:59:41;;;;;;;38.00;20.48;;;2.90;99.90;;;;;;5154251;27;20090;-72
2020/12/12 04:02:07;;;;;;;36.33;21.35;;;2.90;99.90;;;;;;5169511;27;20042;-72
2020/12/12 04:04:52;;;;;;;37.80;21.10;;;3.00;99.90;;;;;;5154496;27;20043;-73
2020/12/12 04:07:18;;;;;;;36.88;21.92;;;2.90;99.90;;;;;;5169434;27;20054;-72
2020/12/12 04:09:44;;;;;;;46.80;24.27;;;2.90;99.90;;;;;;5169324;27;20141;-72
2020/12/12 04:12:10;;;;;;;38.53;21.83;;;2.90;99.90;;;;;;5169430;27;20042;-72
2020/12/12 04:14:55;;;;;;;36.53;23.08;;;2.90;99.90;;;;;;5153836;27;20466;-72
2020/12/12 04:17:21;;;;;;;50.28;23.75;;;2.90;99.90;;;;;;5169427;27;20038;-73
2020/12/12 04:20:07;;;;;;;36.05;19.33;;;2.90;99.90;;;;;;5153841;27;20049;-72
2020/12/12 04:22:33;;;;;;;26.13;14.18;;;2.90;99.90;;;;;;5169398;27;20529;-73
2020/12/12 04:25:19;;;;;;;36.47;20.90;;;2.90;99.90;;;;;;5153755;27;20051;-73
2020/12/12 04:27:45;;;;;;;36.20;21.02;;;2.90;99.90;;;;;;5168854;27;20125;-72
2020/12/12 04:30:11;;;;;;;35.53;21.70;;;2.90;99.90;;;;;;5168965;27;20039;-73
2020/12/12 04:32:37;;;;;;;40.58;22.17;;;2.90;99.90;;;;;;5168882;27;20098;-72
2020/12/12 04:35:03;;;;;;;35.30;21.50;;;2.90;99.90;;;;;;5169091;27;20054;-72
2020/12/12 04:37:49;;;;;;;36.92;18.45;;;2.90;99.90;;;;;;5153292;27;20474;-73
2020/12/12 04:40:34;;;;;;;39.67;21.42;;;2.90;99.90;;;;;;5153483;27;20058;-72
2020/12/12 04:43:02;;;;;;;32.97;18.38;;;2.90;99.90;;;;;;5168860;27;20042;-73
2020/12/12 04:45:49;;;;;;;36.58;20.85;;;2.90;99.90;;;;;;5153411;27;20065;-72
2020/12/12 04:48:35;;;;;;;33.95;20.52;;;2.90;99.90;;;;;;5152869;27;20054;-73
2020/12/12 04:51:01;;;;;;;26.33;15.38;;;2.90;99.90;;;;;;5168597;27;20043;-73
2020/12/12 04:53:26;;;;;;;34.53;19.77;;;2.90;99.90;;;;;;5168658;27;20042;-72
2020/12/12 04:55:54;;;;;;;33.42;20.15;;;2.90;99.90;;;;;;5168595;27;20050;-73
2020/12/12 04:58:28;;;;;;;36.30;20.35;;;2.90;99.90;;;;;;5168594;27;20434;-72
2020/12/12 05:01:14;;;;;;;24.23;12.25;;;2.90;99.90;;;;;;5153125;27;20046;-72
2020/12/12 05:03:44;;;;;;;35.70;19.58;;;2.90;99.90;;;;;;5168607;27;20066;-73
2020/12/12 05:06:09;;;;;;;37.38;21.65;;;2.90;99.90;;;;;;5168292;27;20050;-73
2020/12/12 05:08:35;;;;;;;33.47;19.85;;;2.90;99.90;;;;;;5168183;27;20043;-72
2020/12/12 05:11:23;;;;;;;36.75;19.70;;;2.90;99.90;;;;;;5152607;27;20042;-73
2020/12/12 05:13:49;;;;;;;34.80;21.30;;;2.90;99.90;;;;;;5168038;27;20063;-73
2020/12/12 05:16:35;;;;;;;42.55;22.08;;;2.90;99.90;;;;;;5152942;27;20053;-73
2020/12/12 05:19:22;;;;;;;37.70;21.58;;;2.90;99.90;;;;;;5152826;27;20409;-73
2020/12/12 05:22:09;;;;;;;31.58;19.38;;;2.80;99.90;;;;;;5152968;27;20047;-73
2020/12/12 05:24:38;;;;;;;39.58;21.63;;;2.80;99.90;;;;;;5168190;27;20055;-73
2020/12/12 05:27:04;;;;;;;31.70;16.45;;;2.80;99.90;;;;;;5167967;27;20091;-73
2020/12/12 05:29:29;;;;;;;30.50;15.80;;;2.80;99.90;;;;;;5167690;27;20137;-73
2020/12/12 05:32:16;;;;;;;38.47;19.95;;;2.80;99.90;;;;;;5152442;27;20137;-73
2020/12/12 05:34:42;;;;;;;40.55;22.77;;;2.80;99.90;;;;;;5168093;27;20046;-73
2020/12/12 05:37:28;;;;;;;33.60;19.70;;;2.90;99.90;;;;;;5152077;27;20046;-73
2020/12/12 05:39:56;;;;;;;36.95;20.60;;;2.80;99.90;;;;;;5167753;27;20073;-73
2020/12/12 05:42:23;;;;;;;32.75;18.80;;;2.80;99.90;;;;;;5149540;27;20042;-73
2020/12/12 05:45:09;;;;;;;35.50;20.40;;;2.90;99.90;;;;;;5152367;27;20051;-73
2020/12/12 05:47:35;;;;;;;38.25;21.00;;;2.80;99.90;;;;;;5167726;27;20053;-73
2020/12/12 05:50:01;;;;;;;41.25;22.67;;;2.80;99.90;;;;;;5167725;27;20070;-73
2020/12/12 05:52:29;;;;;;;37.58;19.92;;;2.90;99.90;;;;;;5167841;27;20047;-73
2020/12/12 05:54:55;;;;;;;35.28;20.67;;;2.80;99.90;;;;;;5167989;27;20050;-73
2020/12/12 05:57:22;;;;;;;37.97;21.08;;;2.80;99.90;;;;;;5167557;27;20043;-73
2020/12/12 06:00:07;;;;;;;31.73;18.25;;;2.80;99.90;;;;;;5152641;27;20062;-72
2020/12/12 06:02:36;;;;;;;36.75;19.25;;;2.80;99.90;;;;;;5167736;27;20068;-72
2020/12/12 06:05:05;;;;;;;33.83;18.55;;;2.80;99.90;;;;;;5167557;27;20482;-73
2020/12/12 06:07:33;;;;;;;34.65;20.70;;;2.80;99.90;;;;;;5167634;27;20042;-73
2020/12/12 06:10:28;;;;;;;40.72;20.52;;;2.80;99.90;;;;;;5152171;27;20054;-73
2020/12/12 06:12:59;;;;;;;39.50;22.38;;;2.80;99.90;;;;;;5167640;27;20054;-73
2020/12/12 06:15:38;;;;;;;36.78;17.73;;;2.80;99.90;;;;;;5167603;27;20049;-73
2020/12/12 06:18:31;;;;;;;35.75;21.33;;;2.80;99.90;;;;;;5167527;27;20046;-72
2020/12/12 06:21:03;;;;;;;35.88;21.25;;;2.80;99.90;;;;;;5167587;27;20042;-73
2020/12/12 06:23:31;;;;;;;36.72;20.33;;;2.80;99.90;;;;;;5167624;27;20043;-73
2020/12/12 06:25:58;;;;;;;36.22;22.25;;;2.80;99.90;;;;;;5167538;27;20042;-72
2020/12/12 06:28:27;;;;;;;37.87;23.10;;;2.80;99.90;;;;;;5167346;27;20054;-72
2020/12/12 06:31:13;;;;;;;35.42;19.00;;;2.80;99.90;;;;;;5152044;27;20051;-73
2020/12/12 06:33:50;;;;;;;39.90;22.35;;;2.80;99.90;;;;;;5167349;27;20043;-73
2020/12/12 06:36:33;;;;;;;38.20;22.35;;;2.90;99.90;;;;;;5167529;27;20042;-73
2020/12/12 06:39:19;;;;;;;35.30;21.00;;;2.80;99.90;;;;;;5167342;27;20046;-73
2020/12/12 06:41:50;;;;;;;33.42;19.98;;;2.80;99.90;;;;;;5167248;27;20117;-73
2020/12/12 06:44:43;;;;;;;36.45;20.98;;;2.80;99.90;;;;;;5166968;27;20066;-71
2020/12/12 06:47:40;;;;;;;40.97;22.92;;;2.80;99.90;;;;;;5151697;27;20090;-74
2020/12/12 06:50:14;;;;;;;43.00;23.43;;;2.80;99.90;;;;;;5171023;27;20060;-73
2020/12/12 06:52:59;;;;;;;37.70;21.20;;;2.80;99.90;;;;;;5155762;27;20047;-73
2020/12/12 06:55:25;;;;;;;41.88;23.25;;;2.80;99.90;;;;;;5170901;27;20569;-73
2020/12/12 06:57:57;;;;;;;39.75;22.60;;;2.80;99.90;;;;;;5170822;27;20049;-73
2020/12/12 07:00:30;;;;;;;43.92;23.52;;;2.80;99.90;;;;;;5170965;27;20043;-73
2020/12/12 07:03:01;;;;;;;41.63;22.10;;;2.80;99.90;;;;;;5170872;27;20091;-74
2020/12/12 07:05:33;;;;;;;41.60;23.58;;;2.80;99.90;;;;;;5170719;27;20099;-73
2020/12/12 07:08:10;;;;;;;39.85;20.83;;;2.80;99.90;;;;;;5170631;27;20070;-74
2020/12/12 07:10:37;;;;;;;37.83;21.98;;;2.80;99.90;;;;;;5170684;27;20118;-73
2020/12/12 07:13:04;;;;;;;32.90;19.00;;;2.80;99.90;;;;;;5170528;27;20045;-73
2020/12/12 07:15:35;;;;;;;39.50;22.17;;;2.80;99.90;;;;;;5170502;27;20049;-73
2020/12/12 07:18:05;;;;;;;29.27;15.88;;;2.80;99.90;;;;;;5170453;27;20102;-73
2020/12/12 07:20:33;;;;;;;34.22;20.85;;;2.80;99.90;;;;;;5170436;27;20073;-73
2020/12/12 07:23:04;;;;;;;46.95;24.60;;;2.80;99.90;;;;;;5170396;27;20555;-73
2020/12/12 07:25:32;;;;;;;41.83;24.33;;;2.80;99.90;;;;;;5170794;27;20049;-73
2020/12/12 07:27:58;;;;;;;42.70;24.00;;;2.80;99.90;;;;;;5170326;27;20039;-71
2020/12/12 07:30:43;;;;;;;39.17;20.92;;;2.80;99.90;;;;;;5154775;27;20110;-73
2020/12/12 07:33:09;;;;;;;43.00;22.50;;;2.80;99.90;;;;;;5170208;27;20051;-73
2020/12/12 07:35:35;;;;;;;42.47;24.15;;;2.80;99.90;;;;;;5170119;27;20046;-73
2020/12/12 07:38:21;;;;;;;34.60;20.85;;;2.80;99.90;;;;;;5154589;27;20051;-73
2020/12/12 07:40:47;;;;;;;43.25;23.70;;;2.70;99.90;;;;;;5170219;27;20126;-73
2020/12/12 07:43:12;;;;;;;39.92;22.85;;;2.80;99.90;;;;;;5170140;27;20038;-72
2020/12/12 07:46:09;;;;;;;48.78;24.77;;;2.80;99.90;;;;;;5154664;27;20106;-73
2020/12/12 07:48:35;;;;;;;42.05;24.65;;;2.90;99.90;;;;;;5169729;27;20045;-73
2020/12/12 07:51:10;;;;;;;42.20;21.80;;;2.90;99.90;;;;;;5169879;27;20047;-73
2020/12/12 07:53:56;;;;;;;39.22;20.15;;;2.80;99.90;;;;;;5154274;27;20050;-73
2020/12/12 07:56:50;;;;;;;43.22;24.10;;;2.90;99.90;;;;;;5154253;27;20089;-72
2020/12/12 07:59:35;;;;;;;37.53;22.13;;;2.80;99.90;;;;;;5153915;27;20110;-73
2020/12/12 08:02:03;;;;;;;40.15;21.73;;;2.90;99.90;;;;;;5169769;27;20047;-73
2020/12/12 08:04:49;;;;;;;40.28;21.52;;;2.90;99.90;;;;;;5154237;27;20074;-73
2020/12/12 08:07:35;;;;;;;41.25;25.45;;;2.90;99.90;;;;;;5154167;27;20046;-73
2020/12/12 08:10:05;;;;;;;41.33;21.40;;;2.90;99.90;;;;;;5169562;27;20094;-72
2020/12/12 08:12:51;;;;;;;38.72;19.45;;;2.90;99.90;;;;;;5153988;27;20050;-74
2020/12/12 08:15:42;;;;;;;38.08;20.02;;;2.90;99.90;;;;;;5154080;27;20054;-74
2020/12/12 08:18:27;;;;;;;49.85;25.83;;;2.90;99.90;;;;;;5154192;27;20043;-74
2020/12/12 08:20:53;;;;;;;39.22;22.52;;;2.90;99.90;;;;;;5169297;27;20083;-73
2020/12/12 08:23:19;;;;;;;47.05;24.95;;;2.90;99.90;;;;;;5169171;27;20039;-74
2020/12/12 08:25:46;;;;;;;25.13;14.70;;;2.90;99.90;;;;;;5169167;27;20035;-74
2020/12/12 08:28:12;;;;;;;43.47;24.90;;;2.90;99.90;;;;;;5168580;27;20043;-73
2020/12/12 08:30:38;;;;;;;45.72;21.83;;;3.00;99.90;;;;;;5168827;27;20069;-73
2020/12/12 08:33:11;;;;;;;45.63;24.90;;;3.00;99.90;;;;;;5169469;27;20122;-73
2020/12/12 08:35:37;;;;;;;33.20;17.75;;;3.00;99.90;;;;;;5168848;27;20043;-73
2020/12/12 08:38:07;;;;;;;47.13;24.23;;;3.00;99.90;;;;;;5168860;27;20058;-75
2020/12/12 08:40:45;;;;;;;46.60;24.58;;;3.00;99.90;;;;;;5168873;27;20051;-73
2020/12/12 08:43:12;;;;;;;48.35;26.50;;;3.00;99.90;;;;;;5168823;27;20043;-73
2020/12/12 08:45:43;;;;;;;43.75;20.67;;;3.00;99.90;;;;;;5168776;27;20049;-72
2020/12/12 08:48:14;;;;;;;52.92;25.67;;;3.00;99.90;;;;;;5168400;27;20038;-72
2020/12/12 08:51:02;;;;;;;29.50;17.17;;;3.00;99.90;;;;;;5152981;27;20093;-72
2020/12/12 08:53:47;;;;;;;45.17;22.75;;;3.00;99.90;;;;;;5153539;27;20046;-73
2020/12/12 08:56:33;;;;;;;50.33;23.45;;;3.00;99.90;;;;;;5153426;27;20095;-73
2020/12/12 08:59:03;;;;;;;49.97;27.00;;;3.00;99.90;;;;;;5168459;27;20042;-73
2020/12/12 09:01:44;;;;;;;59.80;29.08;;;3.00;99.90;;;;;;5168292;27;20060;-73
2020/12/12 09:04:30;;;;;;;54.17;27.02;;;3.00;99.90;;;;;;5152824;27;20605;-73
2020/12/12 09:06:58;;;;;;;58.85;29.95;;;3.10;99.90;;;;;;5168339;27;20136;-73
2020/12/12 09:09:27;;;;;;;58.03;26.58;;;3.10;99.90;;;;;;5168185;27;20102;-73
2020/12/12 09:12:08;;;;;;;59.53;29.10;;;3.10;99.90;;;;;;5167444;27;20090;-73
2020/12/12 09:14:41;;;;;;;53.70;29.40;;;3.10;99.90;;;;;;5168258;27;20099;-72
2020/12/12 09:17:09;;;;;;;63.67;29.60;;;3.10;99.90;;;;;;5168375;27;20043;-69
2020/12/12 09:19:55;;;;;;;60.20;26.70;;;3.10;99.90;;;;;;5134144;27;20071;-64
2020/12/12 09:22:21;;;;;;;55.08;27.48;;;3.10;99.90;;;;;;5148087;27;20513;-65
2020/12/12 09:24:46;;;;;;;54.60;27.88;;;3.10;99.90;;;;;;5163736;27;20039;-62
2020/12/12 09:27:13;;;;;;;53.40;25.15;;;3.20;99.90;;;;;;5150340;27;20051;-63
2020/12/12 09:29:38;;;;;;;52.38;28.17;;;3.20;99.90;;;;;;5159522;27;20679;-64
2020/12/12 09:32:05;;;;;;;51.65;23.45;;;3.20;99.90;;;;;;5158041;27;20091;-64
2020/12/12 09:34:31;;;;;;;61.30;29.77;;;3.20;99.90;;;;;;5152393;27;20035;-64
2020/12/12 09:36:56;;;;;;;53.30;27.85;;;3.20;99.90;;;;;;5163742;27;20524;-64
2020/12/12 09:39:22;;;;;;;54.65;29.60;;;3.30;99.90;;;;;;5151737;27;20046;-64
2020/12/12 09:41:48;;;;;;;56.92;28.55;;;3.30;99.90;;;;;;5158544;27;20043;-64
2020/12/12 09:44:14;;;;;;;53.60;22.48;;;3.30;99.90;;;;;;5159173;27;20043;-62
2020/12/12 09:46:40;;;;;;;62.95;31.17;;;3.30;99.90;;;;;;5151163;27;20047;-63
2020/12/12 09:52:48;;;;;;;64.57;30.60;;;3.30;99.90;;;;;;5150247;27;20091;-63
2020/12/12 09:55:35;;;;;;;56.13;28.95;;;3.40;99.90;;;;;;5145246;28;20047;-63
2020/12/12 09:58:01;;;;;;;60.10;29.67;;;3.40;99.90;;;;;;5156016;27;20043;-63
2020/12/12 10:00:26;;;;;;;52.40;28.50;;;3.40;99.90;;;;;;5160877;27;20304;-65
2020/12/12 10:02:53;;;;;;;55.22;28.45;;;3.40;99.90;;;;;;5149836;27;20047;-65
2020/12/12 10:05:47;;;;;;;54.15;25.50;;;3.50;99.90;;;;;;6070368;22;20064;-71
2020/12/12 10:08:13;;;;;;;43.20;21.35;;;3.40;99.90;;;;;;5063710;28;20064;-63
2020/12/12 10:10:59;;;;;;;60.08;27.40;;;3.40;99.90;;;;;;5049549;28;20055;-63
2020/12/12 10:13:25;;;;;;;60.95;26.80;;;3.50;99.90;;;;;;5064438;28;20045;-62
2020/12/12 10:15:50;;;;;;;51.17;25.13;;;3.50;99.90;;;;;;5064947;28;20135;-64
2020/12/12 10:18:36;;;;;;;49.60;24.40;;;3.50;99.90;;;;;;5050398;28;20045;-63
2020/12/12 10:21:02;;;;;;;54.42;30.02;;;3.50;99.90;;;;;;5065260;28;20562;-63
2020/12/12 10:23:29;;;;;;;45.92;22.75;;;3.50;99.90;;;;;;5068005;28;20100;-63
2020/12/12 10:26:14;;;;;;;58.45;28.85;;;3.50;99.90;;;;;;5053989;28;20056;-62
2020/12/12 10:28:41;;;;;;;47.80;23.45;;;3.60;99.90;;;;;;5068871;28;20041;-62
2020/12/12 10:31:26;;;;;;;50.90;28.60;;;3.60;99.90;;;;;;5054224;28;20407;-62
2020/12/12 10:34:12;;;;;;;55.20;27.75;;;3.60;99.90;;;;;;5053693;28;20057;-63
2020/12/12 10:36:58;;;;;;;53.22;27.92;;;3.60;99.90;;;;;;5053677;28;20423;-62
2020/12/12 10:39:33;;;;;;;53.40;28.45;;;3.60;99.90;;;;;;5068588;28;20037;-63
2020/12/12 10:41:59;;;;;;;53.70;29.88;;;3.60;99.90;;;;;;5068670;28;20128;-62
2020/12/12 10:44:26;;;;;;;50.92;28.02;;;3.60;99.90;;;;;;5068470;28;20048;-63
2020/12/12 10:46:52;;;;;;;55.20;25.48;;;3.60;99.90;;;;;;5071267;28;20447;-69
2020/12/12 10:49:18;;;;;;;56.65;27.98;;;3.70;99.90;;;;;;5088441;28;20064;-69
2020/12/12 10:52:05;;;;;;;47.53;21.88;;;3.70;99.90;;;;;;5073482;28;20044;-70
2020/12/12 10:54:31;;;;;;;28.95;16.70;;;3.80;99.90;;;;;;5088284;28;20040;-69
2020/12/12 10:56:57;;;;;;;51.25;25.25;;;3.70;99.90;;;;;;5085958;28;20499;-66
2020/12/12 10:59:23;;;;;;;55.63;27.95;;;3.70;99.90;;;;;;5088073;28;20040;-72
2020/12/12 11:02:13;;;;;;;53.35;28.80;;;3.80;99.90;;;;;;5073056;28;20072;-70
2020/12/12 11:04:40;;;;;;;57.28;27.58;;;3.80;99.90;;;;;;5087955;28;20048;-66
2020/12/12 11:07:07;;;;;;;57.72;29.95;;;3.80;99.90;;;;;;5088057;28;20112;-69
2020/12/12 11:09:34;;;;;;;72.25;36.03;;;3.80;99.90;;;;;;5087848;28;20096;-68
2020/12/12 11:12:20;;;;;;;63.47;32.45;;;3.80;99.90;;;;;;5072792;28;20056;-69
2020/12/12 11:14:47;;;;;;;70.85;35.17;;;3.90;99.90;;;;;;5087888;28;20051;-63
2020/12/12 11:17:13;;;;;;;41.25;18.48;;;3.90;99.90;;;;;;5087701;28;20056;-62
2020/12/12 11:19:40;;;;;;;49.97;24.38;;;3.90;99.90;;;;;;5087673;28;20044;-63
2020/12/12 11:22:06;;;;;;;54.78;26.48;;;3.90;99.90;;;;;;5087664;28;20407;-63
2020/12/12 11:24:52;;;;;;;47.55;25.38;;;3.90;99.90;;;;;;5072862;28;20144;-64
2020/12/12 11:27:39;;;;;;;55.92;30.23;;;3.90;99.90;;;;;;5072572;28;20049;-67
2020/12/12 11:30:11;;;;;;;52.95;27.75;;;3.90;99.90;;;;;;5087402;28;20040;-67
2020/12/12 11:32:37;;;;;;;63.58;31.35;;;3.90;99.90;;;;;;5086764;28;20518;-72
2020/12/12 11:35:19;;;;;;;65.10;34.03;;;3.90;99.90;;;;;;5086735;28;20067;-71
2020/12/12 11:43:57;;;;;;;56.40;29.95;;;4.00;99.90;;;;;;5072504;28;20048;-72
2020/12/12 11:46:47;;;;;;;54.55;30.35;;;4.10;99.90;;;;;;5072542;28;20091;-73
2020/12/12 11:49:32;;;;;;;56.42;29.83;;;4.10;99.90;;;;;;5072170;28;20112;-67
2020/12/12 11:51:58;;;;;;;37.08;19.13;;;4.20;99.90;;;;;;5087001;28;20055;-69
2020/12/12 11:54:24;;;;;;;52.67;28.42;;;4.20;99.90;;;;;;5087206;28;20037;-65
2020/12/12 11:56:50;;;;;;;51.13;27.90;;;4.20;99.90;;;;;;5087484;28;20074;-67
2020/12/12 11:59:35;;;;;;;53.25;28.25;;;4.20;99.90;;;;;;5072361;28;20040;-68
2020/12/12 12:02:01;;;;;;;43.50;22.17;;;4.30;99.90;;;;;;5087410;28;20049;-68
2020/12/12 12:04:27;;;;;;;58.88;27.77;;;4.30;99.90;;;;;;5084075;28;20048;-75
2020/12/12 12:06:53;;;;;;;50.10;27.13;;;4.40;99.90;;;;;;5077818;28;20045;-74
2020/12/12 12:11:45;;;;;;;46.20;26.95;;;4.40;99.90;;;;;;5086847;28;20052;-68
2020/12/12 12:14:11;;;;;;;47.03;26.67;;;4.50;99.90;;;;;;5087071;28;20048;-70
2020/12/12 12:16:39;;;;;;;53.55;29.05;;;4.50;99.90;;;;;;5086970;28;20048;-68
2020/12/12 12:19:24;;;;;;;48.20;26.02;;;4.50;99.90;;;;;;5071979;28;20041;-69
2020/12/12 12:21:51;;;;;;;51.97;26.60;;;4.50;99.90;;;;;;5086787;28;20052;-68
2020/12/12 12:24:18;;;;;;;49.25;26.27;;;4.50;99.90;;;;;;5070019;28;20049;-68
2020/12/12 12:26:49;;;;;;;51.08;25.67;;;4.40;99.90;;;;;;5086846;28;20049;-68
2020/12/12 12:29:16;;;;;;;50.53;24.90;;;4.50;99.90;;;;;;5081649;28;20071;-69
2020/12/12 12:31:44;;;;;;;60.20;29.85;;;4.50;99.90;;;;;;5086026;28;20411;-64
2020/12/12 12:34:10;;;;;;;55.35;28.17;;;4.50;99.90;;;;;;5085963;28;20041;-64
2020/12/12 12:36:38;;;;;;;53.95;27.23;;;4.60;99.90;;;;;;5085926;28;20040;-64
2020/12/12 12:39:24;;;;;;;52.55;26.20;;;4.60;99.90;;;;;;5071322;28;20041;-64
2020/12/12 12:41:50;;;;;;;49.35;25.33;;;4.60;99.90;;;;;;5085890;28;20052;-65
2020/12/12 12:44:17;;;;;;;59.15;29.98;;;4.60;99.90;;;;;;5086142;28;20048;-64
2020/12/12 12:46:45;;;;;;;47.83;26.23;;;4.60;99.90;;;;;;5083974;28;20510;-70
2020/12/12 12:49:11;;;;;;;50.90;27.13;;;4.60;99.90;;;;;;5085637;28;20044;-69
2020/12/12 12:51:38;;;;;;;63.03;30.08;;;4.60;99.90;;;;;;5085563;28;20051;-68
2020/12/12 12:54:04;;;;;;;54.80;29.27;;;4.70;99.90;;;;;;5084916;28;20416;-68
2020/12/12 12:56:30;;;;;;;53.88;29.00;;;4.70;99.90;;;;;;5084015;28;20048;-68
2020/12/12 12:58:56;;;;;;;54.70;28.13;;;4.70;99.90;;;;;;5084046;28;20090;-69
2020/12/12 13:01:23;;;;;;;62.22;27.45;;;4.70;99.90;;;;;;5092776;28;20041;-68
2020/12/12 13:04:09;;;;;;;55.38;27.73;;;4.60;99.90;;;;;;5076561;28;20177;-69
2020/12/12 13:06:55;;;;;;;55.60;26.63;;;4.60;99.90;;;;;;5068472;28;20047;-65
2020/12/12 13:09:41;;;;;;;58.92;29.45;;;4.60;99.90;;;;;;5068509;28;20049;-66
2020/12/12 13:12:06;;;;;;;58.75;28.42;;;4.60;99.90;;;;;;5079495;28;20123;-66
2020/12/12 13:14:32;;;;;;;54.97;27.58;;;4.70;99.90;;;;;;5082350;28;20074;-68